PWSweather.com
Personal Weather Stations
Station Observations
UWIDEPER1
Brown County, Depere, WI 54115

Brown CountyDepere, WI 54115

Lat: 44.44, Lon: -88.05

Elevation: 610

Station Type: Acurite 5in1

www.depereweather.com

High Low Average
Temperature 24.8°F-4.0°F 3.7°F-15.7°F 14.3°F-9.8°F
Dew Point 15.5°F-9.2°F 1.7°F-16.8°F 9.8°F-12.3°F
Winds 8.1 mph SSW13.0 mph SSW Calm Calm 2.5 mph 4.0 mph
Wind Gusts 9.2 mph14.8 mph -- 4.1 mph6.6 mph
Humidity 93% 66% 83%
Pressure 30.41 in1029.80 in 30.24 in1024.00 in -
Precipitation 0.00 in0.00 in - -
Hour Temp Dew Point Humidity Winds Wind Gusts Pressure Precip Precip Rate Daily Precip Total
12:00 AM 10.1°F-12.2°C 6.8°F-14.0°C 86% Calm Calm 2.3 mph3.7 kmh 30.40 in1029.5 mb - 0.00 in0.0 mm 0.00 in0.0 mm
12:10 AM 9.8°F-12.3°C 7.0°F-13.9°C 88% Calm Calm -- 30.41 in1029.8 mb - 0.00 in0.0 mm 0.00 in0.0 mm
12:15 AM 9.3°F-12.6°C 6.5°F-14.2°C 88% Calm Calm -- 30.40 in1029.5 mb - 0.00 in0.0 mm 0.00 in0.0 mm
12:20 AM 9.1°F-12.7°C 6.3°F-14.3°C 88% Calm Calm 1.2 mph1.9 kmh 30.40 in1029.5 mb - 0.00 in0.0 mm 0.00 in0.0 mm
12:25 AM 9.1°F-12.7°C 6.3°F-14.3°C 88% Calm Calm 1.2 mph1.9 kmh 30.40 in1029.5 mb - 0.00 in0.0 mm 0.00 in0.0 mm
12:30 AM 9.3°F-12.6°C 6.5°F-14.2°C 88% Calm Calm 1.2 mph1.9 kmh 30.40 in1029.5 mb - 0.00 in0.0 mm 0.00 in0.0 mm
12:35 AM 9.3°F-12.6°C 6.5°F-14.2°C 88% Calm Calm 1.2 mph1.9 kmh 30.40 in1029.5 mb - 0.00 in0.0 mm 0.00 in0.0 mm
12:40 AM 8.8°F-12.9°C 6.0°F-14.4°C 88% Calm Calm 1.2 mph1.9 kmh 30.41 in1029.8 mb - 0.00 in0.0 mm 0.00 in0.0 mm
12:45 AM 8.8°F-12.9°C 6.0°F-14.4°C 88% Calm Calm 1.2 mph1.9 kmh 30.40 in1029.5 mb - 0.00 in0.0 mm 0.00 in0.0 mm
12:50 AM 8.8°F-12.9°C 6.0°F-14.4°C 88% 1.2 mph E1.9 kmh E 2.3 mph3.7 kmh 30.40 in1029.5 mb - 0.00 in0.0 mm 0.00 in0.0 mm
12:55 AM 9.0°F-12.8°C 6.2°F-14.3°C 88% Calm Calm 2.3 mph3.7 kmh 30.39 in1029.1 mb - 0.00 in0.0 mm 0.00 in0.0 mm
01:00 AM 8.3°F-13.2°C 5.5°F-14.7°C 88% Calm Calm 2.3 mph3.7 kmh 30.40 in1029.5 mb - 0.00 in0.0 mm 0.00 in0.0 mm
01:10 AM 7.6°F-13.6°C 4.8°F-15.1°C 88% 1.2 mph E1.9 kmh E 1.2 mph1.9 kmh 30.40 in1029.5 mb - 0.00 in0.0 mm 0.00 in0.0 mm
01:15 AM 8.1°F-13.3°C 5.8°F-14.6°C 90% 1.2 mph E1.9 kmh E 1.2 mph1.9 kmh 30.41 in1029.8 mb - 0.00 in0.0 mm 0.00 in0.0 mm
01:20 AM 7.6°F-13.6°C 5.3°F-14.8°C 90% 1.2 mph E1.9 kmh E 1.2 mph1.9 kmh 30.40 in1029.5 mb - 0.00 in0.0 mm 0.00 in0.0 mm
01:25 AM 8.8°F-12.9°C 6.0°F-14.4°C 88% Calm Calm 2.3 mph3.7 kmh 30.40 in1029.5 mb - 0.00 in0.0 mm 0.00 in0.0 mm
01:30 AM 7.9°F-13.4°C 5.1°F-14.9°C 88% Calm Calm 2.3 mph3.7 kmh 30.40 in1029.5 mb - 0.00 in0.0 mm 0.00 in0.0 mm
01:35 AM 7.6°F-13.6°C 4.8°F-15.1°C 88% Calm Calm 1.2 mph1.9 kmh 30.39 in1029.1 mb - 0.00 in0.0 mm 0.00 in0.0 mm
01:40 AM 7.5°F-13.6°C 5.2°F-14.9°C 90% Calm Calm 1.2 mph1.9 kmh 30.39 in1029.1 mb - 0.00 in0.0 mm 0.00 in0.0 mm
01:45 AM 7.6°F-13.6°C 5.3°F-14.8°C 90% 1.2 mph E1.9 kmh E 2.3 mph3.7 kmh 30.40 in1029.5 mb - 0.00 in0.0 mm 0.00 in0.0 mm
01:50 AM 7.5°F-13.6°C 5.2°F-14.9°C 90% 1.2 mph E1.9 kmh E 2.3 mph3.7 kmh 30.40 in1029.5 mb - 0.00 in0.0 mm 0.00 in0.0 mm
01:55 AM 7.5°F-13.6°C 5.2°F-14.9°C 90% 1.2 mph E1.9 kmh E 3.5 mph5.6 kmh 30.40 in1029.5 mb - 0.00 in0.0 mm 0.00 in0.0 mm
02:00 AM 8.1°F-13.3°C 5.8°F-14.6°C 90% 2.3 mph E3.7 kmh E 3.5 mph5.6 kmh 30.41 in1029.8 mb - 0.00 in0.0 mm 0.00 in0.0 mm
02:10 AM 8.8°F-12.9°C 6.0°F-14.4°C 88% 2.3 mph E3.7 kmh E 3.5 mph5.6 kmh 30.40 in1029.5 mb - 0.00 in0.0 mm 0.00 in0.0 mm
02:15 AM 9.0°F-12.8°C 6.2°F-14.3°C 88% 1.2 mph E1.9 kmh E 3.5 mph5.6 kmh 30.40 in1029.5 mb - 0.00 in0.0 mm 0.00 in0.0 mm
02:20 AM 8.3°F-13.2°C 5.5°F-14.7°C 88% 2.3 mph E3.7 kmh E 3.5 mph5.6 kmh 30.41 in1029.8 mb - 0.00 in0.0 mm 0.00 in0.0 mm
02:25 AM 8.8°F-12.9°C 6.0°F-14.4°C 88% 2.3 mph E3.7 kmh E 3.5 mph5.6 kmh 30.41 in1029.8 mb - 0.00 in0.0 mm 0.00 in0.0 mm
02:30 AM 8.8°F-12.9°C 6.0°F-14.4°C 88% 2.3 mph E3.7 kmh E 3.5 mph5.6 kmh 30.41 in1029.8 mb - 0.00 in0.0 mm 0.00 in0.0 mm
02:35 AM 8.8°F-12.9°C 6.0°F-14.4°C 88% 2.3 mph E3.7 kmh E 3.5 mph5.6 kmh 30.40 in1029.5 mb - 0.00 in0.0 mm 0.00 in0.0 mm
02:40 AM 8.6°F-13.0°C 5.8°F-14.6°C 88% 1.2 mph E1.9 kmh E 3.5 mph5.6 kmh 30.40 in1029.5 mb - 0.00 in0.0 mm 0.00 in0.0 mm
02:45 AM 8.3°F-13.2°C 5.5°F-14.7°C 88% Calm Calm 2.3 mph3.7 kmh 30.40 in1029.5 mb - 0.00 in0.0 mm 0.00 in0.0 mm
02:50 AM 7.6°F-13.6°C 4.8°F-15.1°C 88% 1.2 mph E1.9 kmh E 2.3 mph3.7 kmh 30.40 in1029.5 mb - 0.00 in0.0 mm 0.00 in0.0 mm
02:55 AM 7.6°F-13.6°C 4.8°F-15.1°C 88% 1.2 mph E1.9 kmh E 2.3 mph3.7 kmh 30.40 in1029.5 mb - 0.00 in0.0 mm 0.00 in0.0 mm
03:00 AM 8.1°F-13.3°C 5.8°F-14.6°C 90% 2.3 mph E3.7 kmh E 2.3 mph3.7 kmh 30.40 in1029.5 mb - 0.00 in0.0 mm 0.00 in0.0 mm
03:10 AM 8.1°F-13.3°C 5.8°F-14.6°C 90% 2.3 mph E3.7 kmh E 2.3 mph3.7 kmh 30.40 in1029.5 mb - 0.00 in0.0 mm 0.00 in0.0 mm
03:15 AM 8.1°F-13.3°C 5.8°F-14.6°C 90% 1.2 mph E1.9 kmh E 2.3 mph3.7 kmh 30.40 in1029.5 mb - 0.00 in0.0 mm 0.00 in0.0 mm
03:20 AM 7.6°F-13.6°C 5.3°F-14.8°C 90% Calm Calm 2.3 mph3.7 kmh 30.38 in1028.8 mb - 0.00 in0.0 mm 0.00 in0.0 mm
03:25 AM 7.5°F-13.6°C 5.2°F-14.9°C 90% Calm Calm 2.3 mph3.7 kmh 30.39 in1029.1 mb - 0.00 in0.0 mm 0.00 in0.0 mm
03:30 AM 7.3°F-13.7°C 5.0°F-15.0°C 90% Calm Calm 1.2 mph1.9 kmh 30.39 in1029.1 mb - 0.00 in0.0 mm 0.00 in0.0 mm
03:35 AM 7.5°F-13.6°C 5.2°F-14.9°C 90% 2.3 mph E3.7 kmh E 2.3 mph3.7 kmh 30.38 in1028.8 mb - 0.00 in0.0 mm 0.00 in0.0 mm
03:40 AM 7.5°F-13.6°C 5.2°F-14.9°C 90% 1.2 mph E1.9 kmh E 2.3 mph3.7 kmh 30.40 in1029.5 mb - 0.00 in0.0 mm 0.00 in0.0 mm
03:45 AM 7.3°F-13.7°C 5.0°F-15.0°C 90% 1.2 mph E1.9 kmh E 2.3 mph3.7 kmh 30.39 in1029.1 mb - 0.00 in0.0 mm 0.00 in0.0 mm
03:50 AM 7.3°F-13.7°C 5.2°F-14.9°C 91% 1.2 mph E1.9 kmh E 2.3 mph3.7 kmh 30.39 in1029.1 mb - 0.00 in0.0 mm 0.00 in0.0 mm
03:55 AM 7.1°F-13.8°C 5.0°F-15.0°C 91% Calm Calm 2.3 mph3.7 kmh 30.40 in1029.5 mb - 0.00 in0.0 mm 0.00 in0.0 mm
04:00 AM 7.5°F-13.6°C 5.4°F-14.8°C 91% 3.5 mph E5.6 kmh E 3.5 mph5.6 kmh 30.39 in1029.1 mb - 0.00 in0.0 mm 0.00 in0.0 mm
04:10 AM 7.5°F-13.6°C 5.2°F-14.9°C 90% 3.5 mph E5.6 kmh E 3.5 mph5.6 kmh 30.39 in1029.1 mb - 0.00 in0.0 mm 0.00 in0.0 mm
04:15 AM 7.5°F-13.6°C 5.2°F-14.9°C 90% 2.3 mph E3.7 kmh E 3.5 mph5.6 kmh 30.38 in1028.8 mb - 0.00 in0.0 mm 0.00 in0.0 mm
04:20 AM 7.3°F-13.7°C 5.0°F-15.0°C 90% 2.3 mph E3.7 kmh E 3.5 mph5.6 kmh 30.40 in1029.5 mb - 0.00 in0.0 mm 0.00 in0.0 mm
04:25 AM 7.3°F-13.7°C 5.0°F-15.0°C 90% 1.2 mph E1.9 kmh E 2.3 mph3.7 kmh 30.40 in1029.5 mb - 0.00 in0.0 mm 0.00 in0.0 mm
04:30 AM 7.3°F-13.7°C 5.0°F-15.0°C 90% 2.3 mph E3.7 kmh E 3.5 mph5.6 kmh 30.38 in1028.8 mb - 0.00 in0.0 mm 0.00 in0.0 mm
04:35 AM 7.3°F-13.7°C 5.0°F-15.0°C 90% 1.2 mph E1.9 kmh E 3.5 mph5.6 kmh 30.39 in1029.1 mb - 0.00 in0.0 mm 0.00 in0.0 mm
04:40 AM 7.1°F-13.8°C 4.8°F-15.1°C 90% 2.3 mph E3.7 kmh E 3.5 mph5.6 kmh 30.39 in1029.1 mb - 0.00 in0.0 mm 0.00 in0.0 mm
04:45 AM 7.0°F-13.9°C 4.7°F-15.2°C 90% 2.3 mph E3.7 kmh E 3.5 mph5.6 kmh 30.38 in1028.8 mb - 0.00 in0.0 mm 0.00 in0.0 mm
04:50 AM 6.8°F-14.0°C 4.5°F-15.3°C 90% Calm Calm 3.5 mph5.6 kmh 30.38 in1028.8 mb - 0.00 in0.0 mm 0.00 in0.0 mm
04:55 AM 6.8°F-14.0°C 4.5°F-15.3°C 90% 1.2 mph E1.9 kmh E 2.3 mph3.7 kmh 30.38 in1028.8 mb - 0.00 in0.0 mm 0.00 in0.0 mm
05:00 AM 6.3°F-14.3°C 4.0°F-15.6°C 90% Calm Calm 2.3 mph3.7 kmh 30.38 in1028.8 mb - 0.00 in0.0 mm 0.00 in0.0 mm
05:10 AM 6.3°F-14.3°C 4.2°F-15.4°C 91% 1.2 mph E1.9 kmh E 3.5 mph5.6 kmh 30.38 in1028.8 mb - 0.00 in0.0 mm 0.00 in0.0 mm
05:15 AM 6.3°F-14.3°C 4.2°F-15.4°C 91% 1.2 mph E1.9 kmh E 3.5 mph5.6 kmh 30.38 in1028.8 mb - 0.00 in0.0 mm 0.00 in0.0 mm
05:20 AM 6.3°F-14.3°C 4.2°F-15.4°C 91% 1.2 mph E1.9 kmh E 3.5 mph5.6 kmh 30.39 in1029.1 mb - 0.00 in0.0 mm 0.00 in0.0 mm
05:25 AM 6.1°F-14.4°C 4.0°F-15.6°C 91% 1.2 mph E1.9 kmh E 3.5 mph5.6 kmh 30.38 in1028.8 mb - 0.00 in0.0 mm 0.00 in0.0 mm
05:30 AM 6.1°F-14.4°C 4.0°F-15.6°C 91% Calm Calm 2.3 mph3.7 kmh 30.38 in1028.8 mb - 0.00 in0.0 mm 0.00 in0.0 mm
05:35 AM 5.9°F-14.5°C 3.8°F-15.7°C 91% 1.2 mph E1.9 kmh E 2.3 mph3.7 kmh 30.39 in1029.1 mb - 0.00 in0.0 mm 0.00 in0.0 mm
05:40 AM 5.9°F-14.5°C 3.8°F-15.7°C 91% 2.3 mph E3.7 kmh E 2.3 mph3.7 kmh 30.38 in1028.8 mb - 0.00 in0.0 mm 0.00 in0.0 mm
05:45 AM 6.3°F-14.3°C 4.2°F-15.4°C 91% 2.3 mph E3.7 kmh E 3.5 mph5.6 kmh 30.39 in1029.1 mb - 0.00 in0.0 mm 0.00 in0.0 mm
05:50 AM 6.3°F-14.3°C 4.2°F-15.4°C 91% 2.3 mph E3.7 kmh E 3.5 mph5.6 kmh 30.39 in1029.1 mb - 0.00 in0.0 mm 0.00 in0.0 mm
05:55 AM 6.3°F-14.3°C 4.2°F-15.4°C 91% 2.3 mph E3.7 kmh E 3.5 mph5.6 kmh 30.38 in1028.8 mb - 0.00 in0.0 mm 0.00 in0.0 mm
06:00 AM 6.3°F-14.3°C 4.2°F-15.4°C 91% Calm Calm 3.5 mph5.6 kmh 30.40 in1029.5 mb - 0.00 in0.0 mm 0.00 in0.0 mm
06:10 AM 6.3°F-14.3°C 4.2°F-15.4°C 91% 1.2 mph E1.9 kmh E 2.3 mph3.7 kmh 30.39 in1029.1 mb - 0.00 in0.0 mm 0.00 in0.0 mm
06:15 AM 6.1°F-14.4°C 4.0°F-15.6°C 91% Calm Calm 2.3 mph3.7 kmh 30.39 in1029.1 mb - 0.00 in0.0 mm 0.00 in0.0 mm
06:20 AM 6.3°F-14.3°C 4.2°F-15.4°C 91% 2.3 mph E3.7 kmh E 3.5 mph5.6 kmh 30.39 in1029.1 mb - 0.00 in0.0 mm 0.00 in0.0 mm
06:25 AM 6.1°F-14.4°C 4.0°F-15.6°C 91% 3.5 mph E5.6 kmh E 3.5 mph5.6 kmh 30.39 in1029.1 mb - 0.00 in0.0 mm 0.00 in0.0 mm
06:30 AM 6.1°F-14.4°C 4.0°F-15.6°C 91% 2.3 mph E3.7 kmh E 3.5 mph5.6 kmh 30.38 in1028.8 mb - 0.00 in0.0 mm 0.00 in0.0 mm
06:35 AM 6.1°F-14.4°C 4.0°F-15.6°C 91% 2.3 mph E3.7 kmh E 3.5 mph5.6 kmh 30.38 in1028.8 mb - 0.00 in0.0 mm 0.00 in0.0 mm
06:40 AM 5.9°F-14.5°C 3.8°F-15.7°C 91% Calm Calm 3.5 mph5.6 kmh 30.39 in1029.1 mb - 0.00 in0.0 mm 0.00 in0.0 mm
06:45 AM 5.6°F-14.7°C 3.5°F-15.8°C 91% 2.3 mph E3.7 kmh E 2.3 mph3.7 kmh 30.38 in1028.8 mb - 0.00 in0.0 mm 0.00 in0.0 mm
06:50 AM 5.6°F-14.7°C 3.5°F-15.8°C 91% 1.2 mph E1.9 kmh E 3.5 mph5.6 kmh 30.38 in1028.8 mb - 0.00 in0.0 mm 0.00 in0.0 mm
06:55 AM 5.4°F-14.8°C 3.3°F-15.9°C 91% 1.2 mph E1.9 kmh E 3.5 mph5.6 kmh 30.38 in1028.8 mb - 0.00 in0.0 mm 0.00 in0.0 mm
07:00 AM 5.1°F-14.9°C 3.0°F-16.1°C 91% Calm Calm 2.3 mph3.7 kmh 30.38 in1028.8 mb - 0.00 in0.0 mm 0.00 in0.0 mm
07:10 AM 4.5°F-15.3°C 2.5°F-16.4°C 91% Calm Calm 3.5 mph5.6 kmh 30.37 in1028.4 mb - 0.00 in0.0 mm 0.00 in0.0 mm
07:15 AM 4.5°F-15.3°C 2.5°F-16.4°C 91% Calm Calm -- 30.37 in1028.4 mb - 0.00 in0.0 mm 0.00 in0.0 mm
07:20 AM 4.5°F-15.3°C 2.9°F-16.2°C 93% Calm Calm -- 30.37 in1028.4 mb - 0.00 in0.0 mm 0.00 in0.0 mm
07:25 AM 4.3°F-15.4°C 2.7°F-16.3°C 93% Calm Calm -- 30.38 in1028.8 mb - 0.00 in0.0 mm 0.00 in0.0 mm
07:30 AM 4.0°F-15.6°C 2.4°F-16.4°C 93% Calm Calm -- 30.37 in1028.4 mb - 0.00 in0.0 mm 0.00 in0.0 mm
07:35 AM 4.0°F-15.6°C 2.4°F-16.4°C 93% 2.3 mph E3.7 kmh E 2.3 mph3.7 kmh 30.38 in1028.8 mb - 0.00 in0.0 mm 0.00 in0.0 mm
07:40 AM 3.7°F-15.7°C 1.7°F-16.8°C 91% Calm Calm 2.3 mph3.7 kmh 30.38 in1028.8 mb - 0.00 in0.0 mm 0.00 in0.0 mm
07:45 AM 4.3°F-15.4°C 2.3°F-16.5°C 91% Calm Calm 2.3 mph3.7 kmh 30.37 in1028.4 mb - 0.00 in0.0 mm 0.00 in0.0 mm
07:50 AM 5.4°F-14.8°C 3.3°F-15.9°C 91% 3.5 mph E5.6 kmh E 3.5 mph5.6 kmh 30.38 in1028.8 mb - 0.00 in0.0 mm 0.00 in0.0 mm
07:55 AM 5.4°F-14.8°C 3.3°F-15.9°C 91% 1.2 mph E1.9 kmh E 3.5 mph5.6 kmh 30.38 in1028.8 mb - 0.00 in0.0 mm 0.00 in0.0 mm
08:00 AM 5.9°F-14.5°C 3.8°F-15.7°C 91% 2.3 mph E3.7 kmh E 3.5 mph5.6 kmh 30.38 in1028.8 mb - 0.00 in0.0 mm 0.00 in0.0 mm
08:10 AM 7.0°F-13.9°C 4.9°F-15.1°C 91% 1.2 mph E1.9 kmh E 2.3 mph3.7 kmh 30.38 in1028.8 mb - 0.00 in0.0 mm 0.00 in0.0 mm
08:15 AM 7.5°F-13.6°C 5.4°F-14.8°C 91% 1.2 mph E1.9 kmh E 2.3 mph3.7 kmh 30.38 in1028.8 mb - 0.00 in0.0 mm 0.00 in0.0 mm
08:20 AM 7.9°F-13.4°C 5.6°F-14.7°C 90% 2.3 mph E3.7 kmh E 3.5 mph5.6 kmh 30.38 in1028.8 mb - 0.00 in0.0 mm 0.00 in0.0 mm
08:25 AM 8.1°F-13.3°C 5.3°F-14.8°C 88% 3.5 mph E5.6 kmh E 3.5 mph5.6 kmh 30.37 in1028.4 mb - 0.00 in0.0 mm 0.00 in0.0 mm
08:30 AM 8.6°F-13.0°C 5.8°F-14.6°C 88% 3.5 mph E5.6 kmh E 3.5 mph5.6 kmh 30.38 in1028.8 mb - 0.00 in0.0 mm 0.00 in0.0 mm
08:35 AM 8.6°F-13.0°C 5.8°F-14.6°C 88% 2.3 mph E3.7 kmh E 3.5 mph5.6 kmh 30.37 in1028.4 mb - 0.00 in0.0 mm 0.00 in0.0 mm
08:40 AM 9.0°F-12.8°C 6.2°F-14.3°C 88% 3.5 mph E5.6 kmh E 4.6 mph7.4 kmh 30.38 in1028.8 mb - 0.00 in0.0 mm 0.00 in0.0 mm
08:45 AM 9.3°F-12.6°C 6.5°F-14.2°C 88% 3.5 mph E5.6 kmh E 5.8 mph9.3 kmh 30.38 in1028.8 mb - 0.00 in0.0 mm 0.00 in0.0 mm
08:50 AM 9.1°F-12.7°C 5.8°F-14.6°C 86% 3.5 mph E5.6 kmh E 5.8 mph9.3 kmh 30.37 in1028.4 mb - 0.00 in0.0 mm 0.00 in0.0 mm
08:55 AM 9.5°F-12.5°C 6.2°F-14.3°C 86% 4.6 mph E7.4 kmh E 5.8 mph9.3 kmh 30.37 in1028.4 mb - 0.00 in0.0 mm 0.00 in0.0 mm
09:00 AM 9.6°F-12.4°C 6.3°F-14.3°C 86% 4.6 mph E7.4 kmh E 5.8 mph9.3 kmh 30.38 in1028.8 mb - 0.00 in0.0 mm 0.00 in0.0 mm
09:10 AM 10.1°F-12.2°C 6.7°F-14.1°C 86% 3.5 mph E5.6 kmh E 6.9 mph11.1 kmh 30.38 in1028.8 mb - 0.00 in0.0 mm 0.00 in0.0 mm
09:15 AM 11.2°F-11.6°C 7.8°F-13.4°C 86% 3.5 mph E5.6 kmh E 6.9 mph11.1 kmh 30.37 in1028.4 mb - 0.00 in0.0 mm 0.00 in0.0 mm
09:20 AM 12.0°F-11.1°C 8.4°F-13.1°C 85% 4.6 mph E7.4 kmh E 4.6 mph7.4 kmh 30.38 in1028.8 mb - 0.00 in0.0 mm 0.00 in0.0 mm
09:25 AM 12.4°F-10.9°C 8.2°F-13.2°C 83% 2.3 mph E3.7 kmh E 4.6 mph7.4 kmh 30.38 in1028.8 mb - 0.00 in0.0 mm 0.00 in0.0 mm
09:30 AM 13.3°F-10.4°C 9.1°F-12.7°C 83% 2.3 mph E3.7 kmh E 4.6 mph7.4 kmh 30.38 in1028.8 mb - 0.00 in0.0 mm 0.00 in0.0 mm
09:35 AM 13.1°F-10.5°C 8.9°F-12.8°C 83% 2.3 mph E3.7 kmh E 5.8 mph9.3 kmh 30.38 in1028.8 mb - 0.00 in0.0 mm 0.00 in0.0 mm
09:40 AM 12.8°F-10.7°C 8.6°F-13.0°C 83% 3.5 mph E5.6 kmh E 5.8 mph9.3 kmh 30.38 in1028.8 mb - 0.00 in0.0 mm 0.00 in0.0 mm
09:45 AM 13.3°F-10.4°C 8.6°F-13.0°C 81% 3.5 mph E5.6 kmh E 3.5 mph5.6 kmh 30.38 in1028.8 mb - 0.00 in0.0 mm 0.00 in0.0 mm
09:50 AM 13.5°F-10.3°C 8.8°F-12.9°C 81% 3.5 mph E5.6 kmh E 6.9 mph11.1 kmh 30.38 in1028.8 mb - 0.00 in0.0 mm 0.00 in0.0 mm
09:55 AM 14.3°F-9.8°C 9.3°F-12.6°C 80% 3.5 mph E5.6 kmh E 6.9 mph11.1 kmh 30.38 in1028.8 mb - 0.00 in0.0 mm 0.00 in0.0 mm
10:00 AM 15.0°F-9.4°C 9.9°F-12.3°C 80% 3.5 mph E5.6 kmh E 4.6 mph7.4 kmh 30.39 in1029.1 mb - 0.00 in0.0 mm 0.00 in0.0 mm
10:10 AM 15.2°F-9.3°C 9.9°F-12.3°C 79% 3.5 mph E5.6 kmh E 3.5 mph5.6 kmh 30.39 in1029.1 mb - 0.00 in0.0 mm 0.00 in0.0 mm
10:15 AM 15.6°F-9.1°C 10.0°F-12.2°C 78% 4.6 mph E7.4 kmh E 4.6 mph7.4 kmh 30.39 in1029.1 mb - 0.00 in0.0 mm 0.00 in0.0 mm
10:20 AM 15.6°F-9.1°C 10.0°F-12.2°C 78% 3.5 mph E5.6 kmh E 4.6 mph7.4 kmh 30.38 in1028.8 mb - 0.00 in0.0 mm 0.00 in0.0 mm
10:25 AM 16.2°F-8.8°C 10.5°F-11.9°C 78% 2.3 mph E3.7 kmh E 4.6 mph7.4 kmh 30.38 in1028.8 mb - 0.00 in0.0 mm 0.00 in0.0 mm
10:30 AM 15.3°F-9.3°C 9.7°F-12.4°C 78% 4.6 mph E7.4 kmh E 5.8 mph9.3 kmh 30.39 in1029.1 mb - 0.00 in0.0 mm 0.00 in0.0 mm
10:35 AM 15.8°F-9.0°C 10.1°F-12.2°C 78% 4.6 mph E7.4 kmh E 5.8 mph9.3 kmh 30.38 in1028.8 mb - 0.00 in0.0 mm 0.00 in0.0 mm
10:40 AM 15.8°F-9.0°C 10.4°F-12.0°C 79% 8.1 mph SSW13.0 kmh SSW 8.1 mph13.0 kmh 30.39 in1029.1 mb - 0.00 in0.0 mm 0.00 in0.0 mm
10:45 AM 16.4°F-8.7°C 10.7°F-11.8°C 78% 4.6 mph WSW7.4 kmh WSW 8.1 mph13.0 kmh 30.38 in1028.8 mb - 0.00 in0.0 mm 0.00 in0.0 mm
10:50 AM 17.1°F-8.3°C 10.8°F-11.8°C 76% 3.5 mph WSW5.6 kmh WSW 8.1 mph13.0 kmh 30.39 in1029.1 mb - 0.00 in0.0 mm 0.00 in0.0 mm
10:55 AM 17.9°F-7.8°C 11.3°F-11.5°C 75% 4.6 mph SW7.4 kmh SW 6.9 mph11.1 kmh 30.38 in1028.8 mb - 0.00 in0.0 mm 0.00 in0.0 mm
11:00 AM 18.5°F-7.5°C 11.9°F-11.2°C 75% 3.5 mph SE5.6 kmh SE 6.9 mph11.1 kmh 30.37 in1028.4 mb - 0.00 in0.0 mm 0.00 in0.0 mm
11:10 AM 18.7°F-7.4°C 12.1°F-11.1°C 75% 2.3 mph SSW3.7 kmh SSW 5.8 mph9.3 kmh 30.37 in1028.4 mb - 0.00 in0.0 mm 0.00 in0.0 mm
11:15 AM 18.7°F-7.4°C 11.8°F-11.2°C 74% 3.5 mph SSW5.6 kmh SSW 4.6 mph7.4 kmh 30.37 in1028.4 mb - 0.00 in0.0 mm 0.00 in0.0 mm
11:20 AM 18.8°F-7.3°C 11.9°F-11.2°C 74% 2.3 mph SSW3.7 kmh SSW 4.6 mph7.4 kmh 30.36 in1028.1 mb - 0.00 in0.0 mm 0.00 in0.0 mm
11:25 AM 19.6°F-6.9°C 12.6°F-10.8°C 74% 3.5 mph W5.6 kmh W 4.6 mph7.4 kmh 30.36 in1028.1 mb - 0.00 in0.0 mm 0.00 in0.0 mm
11:30 AM 19.7°F-6.8°C 12.8°F-10.7°C 74% 2.3 mph SSW3.7 kmh SSW 4.6 mph7.4 kmh 30.37 in1028.4 mb - 0.00 in0.0 mm 0.00 in0.0 mm
11:35 AM 19.3°F-7.1°C 12.4°F-10.9°C 74% 2.3 mph SSW3.7 kmh SSW 4.6 mph7.4 kmh 30.36 in1028.1 mb - 0.00 in0.0 mm 0.00 in0.0 mm
11:40 AM 20.7°F-6.3°C 13.4°F-10.3°C 73% 3.5 mph S5.6 kmh S 4.6 mph7.4 kmh 30.36 in1028.1 mb - 0.00 in0.0 mm 0.00 in0.0 mm
11:45 AM 20.7°F-6.3°C 12.8°F-10.7°C 71% 4.6 mph S7.4 kmh S 6.9 mph11.1 kmh 30.35 in1027.8 mb - 0.00 in0.0 mm 0.00 in0.0 mm
11:50 AM 20.2°F-6.6°C 12.3°F-10.9°C 71% 5.8 mph SSW9.3 kmh SSW 9.2 mph14.8 kmh 30.35 in1027.8 mb - 0.00 in0.0 mm 0.00 in0.0 mm
11:55 AM 20.2°F-6.6°C 12.3°F-10.9°C 71% 4.6 mph SSW7.4 kmh SSW 9.2 mph14.8 kmh 30.34 in1027.4 mb - 0.00 in0.0 mm 0.00 in0.0 mm
12:00 PM 20.0°F-6.7°C 12.7°F-10.7°C 73% 3.5 mph E5.6 kmh E 8.1 mph13.0 kmh 30.34 in1027.4 mb - 0.00 in0.0 mm 0.00 in0.0 mm
12:10 PM 20.7°F-6.3°C 12.8°F-10.7°C 71% 3.5 mph W5.6 kmh W 5.8 mph9.3 kmh 30.33 in1027.1 mb - 0.00 in0.0 mm 0.00 in0.0 mm
12:15 PM 20.9°F-6.2°C 13.0°F-10.6°C 71% 2.3 mph WSW3.7 kmh WSW 3.5 mph5.6 kmh 30.34 in1027.4 mb - 0.00 in0.0 mm 0.00 in0.0 mm
12:20 PM 21.3°F-5.9°C 13.0°F-10.6°C 70% 3.5 mph SW5.6 kmh SW 4.6 mph7.4 kmh 30.33 in1027.1 mb - 0.00 in0.0 mm 0.00 in0.0 mm
12:25 PM 21.6°F-5.8°C 13.3°F-10.4°C 70% 2.3 mph SSW3.7 kmh SSW 5.8 mph9.3 kmh 30.33 in1027.1 mb - 0.00 in0.0 mm 0.00 in0.0 mm
12:30 PM 21.9°F-5.6°C 13.6°F-10.2°C 70% 3.5 mph W5.6 kmh W 5.8 mph9.3 kmh 30.32 in1026.8 mb - 0.00 in0.0 mm 0.00 in0.0 mm
12:35 PM 21.9°F-5.6°C 13.6°F-10.2°C 70% 3.5 mph E5.6 kmh E 4.6 mph7.4 kmh 30.32 in1026.8 mb - 0.00 in0.0 mm 0.00 in0.0 mm
12:40 PM 21.9°F-5.6°C 13.6°F-10.2°C 70% 3.5 mph E5.6 kmh E 4.6 mph7.4 kmh 30.32 in1026.8 mb - 0.00 in0.0 mm 0.00 in0.0 mm
12:45 PM 22.7°F-5.2°C 14.0°F-10.0°C 69% 3.5 mph E5.6 kmh E 4.6 mph7.4 kmh 30.32 in1026.8 mb - 0.00 in0.0 mm 0.00 in0.0 mm
12:50 PM 22.7°F-5.2°C 14.1°F-9.9°C 69% 4.6 mph E7.4 kmh E 4.6 mph7.4 kmh 30.32 in1026.8 mb - 0.00 in0.0 mm 0.00 in0.0 mm
12:55 PM 23.2°F-4.9°C 14.9°F-9.5°C 70% 3.5 mph E5.6 kmh E 4.6 mph7.4 kmh 30.31 in1026.4 mb - 0.00 in0.0 mm 0.00 in0.0 mm
01:00 PM 23.4°F-4.8°C 14.4°F-9.8°C 68% 4.6 mph S7.4 kmh S 5.8 mph9.3 kmh 30.31 in1026.4 mb - 0.00 in0.0 mm 0.00 in0.0 mm
01:10 PM 24.4°F-4.2°C 15.3°F-9.3°C 68% 3.5 mph SSW5.6 kmh SSW 4.6 mph7.4 kmh 30.31 in1026.4 mb - 0.00 in0.0 mm 0.00 in0.0 mm
01:15 PM 24.6°F-4.1°C 14.9°F-9.5°C 66% 3.5 mph S5.6 kmh S 4.6 mph7.4 kmh 30.31 in1026.4 mb - 0.00 in0.0 mm 0.00 in0.0 mm
01:20 PM 24.4°F-4.2°C 14.7°F-9.6°C 66% 4.6 mph WSW7.4 kmh WSW 5.8 mph9.3 kmh 30.30 in1026.1 mb - 0.00 in0.0 mm 0.00 in0.0 mm
01:25 PM 24.8°F-4.0°C 15.0°F-9.4°C 66% 3.5 mph SSW5.6 kmh SSW 5.8 mph9.3 kmh 30.30 in1026.1 mb - 0.00 in0.0 mm 0.00 in0.0 mm
01:30 PM 24.6°F-4.1°C 14.9°F-9.5°C 66% 3.5 mph SSE5.6 kmh SSE 5.8 mph9.3 kmh 30.30 in1026.1 mb - 0.00 in0.0 mm 0.00 in0.0 mm
01:35 PM 24.1°F-4.4°C 15.1°F-9.4°C 68% 3.5 mph S5.6 kmh S 5.8 mph9.3 kmh 30.31 in1026.4 mb - 0.00 in0.0 mm 0.00 in0.0 mm
01:40 PM 24.1°F-4.4°C 15.1°F-9.4°C 68% 3.5 mph S5.6 kmh S 5.8 mph9.3 kmh 30.30 in1026.1 mb - 0.00 in0.0 mm 0.00 in0.0 mm
01:45 PM 24.4°F-4.2°C 15.3°F-9.3°C 68% 3.5 mph SSW5.6 kmh SSW 4.6 mph7.4 kmh 30.30 in1026.1 mb - 0.00 in0.0 mm 0.00 in0.0 mm
01:50 PM 24.6°F-4.1°C 15.5°F-9.2°C 68% 3.5 mph SW5.6 kmh SW 4.6 mph7.4 kmh 30.30 in1026.1 mb - 0.00 in0.0 mm 0.00 in0.0 mm
01:55 PM 24.4°F-4.2°C 14.7°F-9.6°C 66% 5.8 mph SSW9.3 kmh SSW 6.9 mph11.1 kmh 30.30 in1026.1 mb - 0.00 in0.0 mm 0.00 in0.0 mm
02:00 PM 24.1°F-4.4°C 15.1°F-9.4°C 68% 4.6 mph SSW7.4 kmh SSW 6.9 mph11.1 kmh 30.30 in1026.1 mb - 0.00 in0.0 mm 0.00 in0.0 mm
02:10 PM 24.2°F-4.3°C 15.5°F-9.2°C 69% 5.8 mph SSW9.3 kmh SSW 8.1 mph13.0 kmh 30.31 in1026.4 mb - 0.00 in0.0 mm 0.00 in0.0 mm
02:15 PM 23.7°F-4.6°C 15.0°F-9.4°C 69% 5.8 mph SW9.3 kmh SW 8.1 mph13.0 kmh 30.31 in1026.4 mb - 0.00 in0.0 mm 0.00 in0.0 mm
02:20 PM 23.8°F-4.6°C 15.4°F-9.2°C 70% 4.6 mph W7.4 kmh W 8.1 mph13.0 kmh 30.30 in1026.1 mb - 0.00 in0.0 mm 0.00 in0.0 mm
02:25 PM 23.7°F-4.6°C 15.3°F-9.3°C 70% 3.5 mph SSW5.6 kmh SSW 8.1 mph13.0 kmh 30.30 in1026.1 mb - 0.00 in0.0 mm 0.00 in0.0 mm
02:30 PM 23.4°F-4.8°C 15.1°F-9.4°C 70% 4.6 mph SSW7.4 kmh SSW 6.9 mph11.1 kmh 30.30 in1026.1 mb - 0.00 in0.0 mm 0.00 in0.0 mm
02:35 PM 23.4°F-4.8°C 15.1°F-9.4°C 70% 3.5 mph S5.6 kmh S 6.9 mph11.1 kmh 30.29 in1025.7 mb - 0.00 in0.0 mm 0.00 in0.0 mm
02:40 PM 23.4°F-4.8°C 15.1°F-9.4°C 70% 5.8 mph SW9.3 kmh SW 8.1 mph13.0 kmh 30.29 in1025.7 mb - 0.00 in0.0 mm 0.00 in0.0 mm
02:45 PM 23.2°F-4.9°C 14.9°F-9.5°C 70% 2.3 mph SSW3.7 kmh SSW 8.1 mph13.0 kmh 30.30 in1026.1 mb - 0.00 in0.0 mm 0.00 in0.0 mm
02:50 PM 23.4°F-4.8°C 15.1°F-9.4°C 70% 6.9 mph SSE11.1 kmh SSE 8.1 mph13.0 kmh 30.29 in1025.7 mb - 0.00 in0.0 mm 0.00 in0.0 mm
02:55 PM 23.2°F-4.9°C 14.9°F-9.5°C 70% 4.6 mph E7.4 kmh E 8.1 mph13.0 kmh 30.30 in1026.1 mb - 0.00 in0.0 mm 0.00 in0.0 mm
03:00 PM 23.3°F-4.8°C 15.0°F-9.4°C 70% 3.5 mph SSW5.6 kmh SSW 8.1 mph13.0 kmh 30.30 in1026.1 mb - 0.00 in0.0 mm 0.00 in0.0 mm
03:10 PM 22.9°F-5.1°C 14.6°F-9.7°C 70% 5.8 mph E9.3 kmh E 9.2 mph14.8 kmh 30.30 in1026.1 mb - 0.00 in0.0 mm 0.00 in0.0 mm
03:15 PM 23.2°F-4.9°C 14.9°F-9.5°C 70% 3.5 mph SSW5.6 kmh SSW 9.2 mph14.8 kmh 30.30 in1026.1 mb - 0.00 in0.0 mm 0.00 in0.0 mm
03:20 PM 23.3°F-4.8°C 15.0°F-9.4°C 70% 4.6 mph S7.4 kmh S 9.2 mph14.8 kmh 30.29 in1025.7 mb - 0.00 in0.0 mm 0.00 in0.0 mm
03:25 PM 23.2°F-4.9°C 14.9°F-9.5°C 70% 4.6 mph SSE7.4 kmh SSE 9.2 mph14.8 kmh 30.29 in1025.7 mb - 0.00 in0.0 mm 0.00 in0.0 mm
03:30 PM 23.2°F-4.9°C 14.9°F-9.5°C 70% 3.5 mph SSW5.6 kmh SSW 9.2 mph14.8 kmh 30.29 in1025.7 mb - 0.00 in0.0 mm 0.00 in0.0 mm
03:35 PM 22.9°F-5.1°C 14.6°F-9.7°C 70% 3.5 mph SSW5.6 kmh SSW 5.8 mph9.3 kmh 30.29 in1025.7 mb - 0.00 in0.0 mm 0.00 in0.0 mm
03:40 PM 22.9°F-5.1°C 14.6°F-9.7°C 70% 5.8 mph SSW9.3 kmh SSW 6.9 mph11.1 kmh 30.29 in1025.7 mb - 0.00 in0.0 mm 0.00 in0.0 mm
03:45 PM 22.7°F-5.2°C 14.7°F-9.6°C 71% 3.5 mph S5.6 kmh S 6.9 mph11.1 kmh 30.29 in1025.7 mb - 0.00 in0.0 mm 0.00 in0.0 mm
03:50 PM 22.5°F-5.3°C 15.1°F-9.4°C 73% 3.5 mph SSE5.6 kmh SSE 5.8 mph9.3 kmh 30.29 in1025.7 mb - 0.00 in0.0 mm 0.00 in0.0 mm
03:55 PM 22.5°F-5.3°C 15.1°F-9.4°C 73% 3.5 mph S5.6 kmh S 4.6 mph7.4 kmh 30.29 in1025.7 mb - 0.00 in0.0 mm 0.00 in0.0 mm
04:00 PM 22.3°F-5.4°C 15.0°F-9.4°C 73% 3.5 mph S5.6 kmh S 3.5 mph5.6 kmh 30.29 in1025.7 mb - 0.00 in0.0 mm 0.00 in0.0 mm
04:10 PM 21.7°F-5.7°C 14.7°F-9.6°C 74% 2.3 mph E3.7 kmh E 3.5 mph5.6 kmh 30.29 in1025.7 mb - 0.00 in0.0 mm 0.00 in0.0 mm
04:15 PM 21.6°F-5.8°C 14.9°F-9.5°C 75% 2.3 mph E3.7 kmh E 3.5 mph5.6 kmh 30.29 in1025.7 mb - 0.00 in0.0 mm 0.00 in0.0 mm
04:20 PM 21.3°F-5.9°C 14.6°F-9.7°C 75% 2.3 mph E3.7 kmh E 3.5 mph5.6 kmh 30.28 in1025.4 mb - 0.00 in0.0 mm 0.00 in0.0 mm
04:25 PM 20.9°F-6.2°C 14.2°F-9.9°C 75% 2.3 mph E3.7 kmh E 3.5 mph5.6 kmh 30.29 in1025.7 mb - 0.00 in0.0 mm 0.00 in0.0 mm
04:30 PM 20.4°F-6.4°C 14.0°F-10.0°C 76% 1.2 mph E1.9 kmh E 3.5 mph5.6 kmh 30.28 in1025.4 mb - 0.00 in0.0 mm 0.00 in0.0 mm
04:35 PM 20.0°F-6.7°C 13.6°F-10.2°C 76% 1.2 mph E1.9 kmh E 3.5 mph5.6 kmh 30.29 in1025.7 mb - 0.00 in0.0 mm 0.00 in0.0 mm
04:40 PM 19.6°F-6.9°C 13.9°F-10.1°C 78% 1.2 mph E1.9 kmh E 3.5 mph5.6 kmh 30.28 in1025.4 mb - 0.00 in0.0 mm 0.00 in0.0 mm
04:45 PM 19.3°F-7.1°C 13.9°F-10.1°C 79% 2.3 mph E3.7 kmh E 3.5 mph5.6 kmh 30.28 in1025.4 mb - 0.00 in0.0 mm 0.00 in0.0 mm
04:50 PM 19.0°F-7.2°C 13.6°F-10.2°C 79% 2.3 mph E3.7 kmh E 2.3 mph3.7 kmh 30.29 in1025.7 mb - 0.00 in0.0 mm 0.00 in0.0 mm
04:55 PM 18.8°F-7.3°C 13.7°F-10.2°C 80% 2.3 mph E3.7 kmh E 2.3 mph3.7 kmh 30.29 in1025.7 mb - 0.00 in0.0 mm 0.00 in0.0 mm
05:00 PM 18.8°F-7.3°C 13.7°F-10.2°C 80% 3.5 mph E5.6 kmh E 4.6 mph7.4 kmh 30.29 in1025.7 mb - 0.00 in0.0 mm 0.00 in0.0 mm
05:10 PM 19.2°F-7.1°C 13.8°F-10.1°C 79% 2.3 mph E3.7 kmh E 4.6 mph7.4 kmh 30.29 in1025.7 mb - 0.00 in0.0 mm 0.00 in0.0 mm
05:15 PM 19.2°F-7.1°C 13.8°F-10.1°C 79% 3.5 mph E5.6 kmh E 4.6 mph7.4 kmh 30.29 in1025.7 mb - 0.00 in0.0 mm 0.00 in0.0 mm
05:20 PM 19.0°F-7.2°C 13.6°F-10.2°C 79% 2.3 mph E3.7 kmh E 4.6 mph7.4 kmh 30.28 in1025.4 mb - 0.00 in0.0 mm 0.00 in0.0 mm
05:25 PM 18.8°F-7.3°C 13.4°F-10.3°C 79% 1.2 mph E1.9 kmh E 4.6 mph7.4 kmh 30.28 in1025.4 mb - 0.00 in0.0 mm 0.00 in0.0 mm
05:30 PM 18.7°F-7.4°C 13.6°F-10.2°C 80% 3.5 mph E5.6 kmh E 3.5 mph5.6 kmh 30.28 in1025.4 mb - 0.00 in0.0 mm 0.00 in0.0 mm
05:35 PM 18.7°F-7.4°C 13.6°F-10.2°C 80% 2.3 mph E3.7 kmh E 3.5 mph5.6 kmh 30.28 in1025.4 mb - 0.00 in0.0 mm 0.00 in0.0 mm
05:40 PM 18.2°F-7.7°C 13.1°F-10.5°C 80% 1.2 mph E1.9 kmh E 3.5 mph5.6 kmh 30.28 in1025.4 mb - 0.00 in0.0 mm 0.00 in0.0 mm
05:45 PM 18.1°F-7.7°C 13.0°F-10.6°C 80% 3.5 mph E5.6 kmh E 3.5 mph5.6 kmh 30.28 in1025.4 mb - 0.00 in0.0 mm 0.00 in0.0 mm
05:50 PM 18.1°F-7.7°C 13.0°F-10.6°C 80% 3.5 mph E5.6 kmh E 3.5 mph5.6 kmh 30.27 in1025.1 mb - 0.00 in0.0 mm 0.00 in0.0 mm
05:55 PM 17.9°F-7.8°C 13.1°F-10.5°C 81% 3.5 mph E5.6 kmh E 3.5 mph5.6 kmh 30.28 in1025.4 mb - 0.00 in0.0 mm 0.00 in0.0 mm
06:00 PM 17.9°F-7.8°C 13.1°F-10.5°C 81% 3.5 mph E5.6 kmh E 3.5 mph5.6 kmh 30.28 in1025.4 mb - 0.00 in0.0 mm 0.00 in0.0 mm
06:10 PM 17.9°F-7.8°C 13.1°F-10.5°C 81% 3.5 mph E5.6 kmh E 5.8 mph9.3 kmh 30.28 in1025.4 mb - 0.00 in0.0 mm 0.00 in0.0 mm
06:15 PM 17.7°F-7.9°C 12.9°F-10.6°C 81% 3.5 mph E5.6 kmh E 5.8 mph9.3 kmh 30.27 in1025.1 mb - 0.00 in0.0 mm 0.00 in0.0 mm
06:20 PM 17.7°F-7.9°C 12.9°F-10.6°C 81% 2.3 mph E3.7 kmh E 5.8 mph9.3 kmh 30.27 in1025.1 mb - 0.00 in0.0 mm 0.00 in0.0 mm
06:25 PM 17.4°F-8.1°C 12.6°F-10.8°C 81% 3.5 mph E5.6 kmh E 3.5 mph5.6 kmh 30.28 in1025.4 mb - 0.00 in0.0 mm 0.00 in0.0 mm
06:30 PM 17.2°F-8.2°C 12.4°F-10.9°C 81% 2.3 mph E3.7 kmh E 3.5 mph5.6 kmh 30.27 in1025.1 mb - 0.00 in0.0 mm 0.00 in0.0 mm
06:35 PM 17.2°F-8.2°C 12.4°F-10.9°C 81% 2.3 mph E3.7 kmh E 3.5 mph5.6 kmh 30.28 in1025.4 mb - 0.00 in0.0 mm 0.00 in0.0 mm
06:40 PM 17.1°F-8.3°C 12.3°F-10.9°C 81% 3.5 mph E5.6 kmh E 3.5 mph5.6 kmh 30.28 in1025.4 mb - 0.00 in0.0 mm 0.00 in0.0 mm
06:45 PM 16.9°F-8.4°C 12.1°F-11.1°C 81% 3.5 mph E5.6 kmh E 3.5 mph5.6 kmh 30.27 in1025.1 mb - 0.00 in0.0 mm 0.00 in0.0 mm
06:50 PM 17.1°F-8.3°C 12.3°F-10.9°C 81% 2.3 mph E3.7 kmh E 3.5 mph5.6 kmh 30.28 in1025.4 mb - 0.00 in0.0 mm 0.00 in0.0 mm
06:55 PM 16.9°F-8.4°C 12.1°F-11.1°C 81% 2.3 mph E3.7 kmh E 3.5 mph5.6 kmh 30.28 in1025.4 mb - 0.00 in0.0 mm 0.00 in0.0 mm
07:00 PM 16.9°F-8.4°C 12.1°F-11.1°C 81% 3.5 mph E5.6 kmh E 3.5 mph5.6 kmh 30.28 in1025.4 mb - 0.00 in0.0 mm 0.00 in0.0 mm
07:10 PM 17.1°F-8.3°C 12.8°F-10.7°C 83% 2.3 mph E3.7 kmh E 3.5 mph5.6 kmh 30.27 in1025.1 mb - 0.00 in0.0 mm 0.00 in0.0 mm
07:15 PM 17.1°F-8.3°C 12.8°F-10.7°C 83% 4.6 mph E7.4 kmh E 4.6 mph7.4 kmh 30.27 in1025.1 mb - 0.00 in0.0 mm 0.00 in0.0 mm
07:20 PM 17.1°F-8.3°C 12.8°F-10.7°C 83% 3.5 mph E5.6 kmh E 4.6 mph7.4 kmh 30.27 in1025.1 mb - 0.00 in0.0 mm 0.00 in0.0 mm
07:25 PM 17.2°F-8.2°C 12.9°F-10.6°C 83% 2.3 mph E3.7 kmh E 4.6 mph7.4 kmh 30.27 in1025.1 mb - 0.00 in0.0 mm 0.00 in0.0 mm
07:30 PM 17.2°F-8.2°C 12.9°F-10.6°C 83% 4.6 mph E7.4 kmh E 4.6 mph7.4 kmh 30.27 in1025.1 mb - 0.00 in0.0 mm 0.00 in0.0 mm
07:35 PM 17.1°F-8.3°C 12.8°F-10.7°C 83% 3.5 mph E5.6 kmh E 4.6 mph7.4 kmh 30.27 in1025.1 mb - 0.00 in0.0 mm 0.00 in0.0 mm
07:40 PM 17.1°F-8.3°C 12.8°F-10.7°C 83% 2.3 mph E3.7 kmh E 4.6 mph7.4 kmh 30.26 in1024.7 mb - 0.00 in0.0 mm 0.00 in0.0 mm
07:45 PM 17.1°F-8.3°C 12.8°F-10.7°C 83% 2.3 mph E3.7 kmh E 3.5 mph5.6 kmh 30.27 in1025.1 mb - 0.00 in0.0 mm 0.00 in0.0 mm
07:50 PM 17.2°F-8.2°C 12.9°F-10.6°C 83% 3.5 mph E5.6 kmh E 3.5 mph5.6 kmh 30.27 in1025.1 mb - 0.00 in0.0 mm 0.00 in0.0 mm
07:55 PM 17.2°F-8.2°C 12.9°F-10.6°C 83% 2.3 mph E3.7 kmh E 4.6 mph7.4 kmh 30.27 in1025.1 mb - 0.00 in0.0 mm 0.00 in0.0 mm
08:00 PM 17.1°F-8.3°C 12.8°F-10.7°C 83% 3.5 mph E5.6 kmh E 4.6 mph7.4 kmh 30.27 in1025.1 mb - 0.00 in0.0 mm 0.00 in0.0 mm
08:10 PM 16.7°F-8.5°C 12.4°F-10.9°C 83% 3.5 mph E5.6 kmh E 4.6 mph7.4 kmh 30.27 in1025.1 mb - 0.00 in0.0 mm 0.00 in0.0 mm
08:15 PM 16.7°F-8.5°C 12.4°F-10.9°C 83% 3.5 mph E5.6 kmh E 3.5 mph5.6 kmh 30.27 in1025.1 mb - 0.00 in0.0 mm 0.00 in0.0 mm
08:20 PM 16.7°F-8.5°C 12.4°F-10.9°C 83% 2.3 mph E3.7 kmh E 4.6 mph7.4 kmh 30.27 in1025.1 mb - 0.00 in0.0 mm 0.00 in0.0 mm
08:25 PM 16.2°F-8.8°C 11.9°F-11.2°C 83% 2.3 mph E3.7 kmh E 4.6 mph7.4 kmh 30.27 in1025.1 mb - 0.00 in0.0 mm 0.00 in0.0 mm
08:30 PM 16.2°F-8.8°C 12.5°F-10.8°C 85% 3.5 mph E5.6 kmh E 3.5 mph5.6 kmh 30.27 in1025.1 mb - 0.00 in0.0 mm 0.00 in0.0 mm
08:35 PM 16.2°F-8.8°C 12.5°F-10.8°C 85% 2.3 mph E3.7 kmh E 3.5 mph5.6 kmh 30.27 in1025.1 mb - 0.00 in0.0 mm 0.00 in0.0 mm
08:40 PM 15.9°F-8.9°C 12.2°F-11.0°C 85% 2.3 mph E3.7 kmh E 3.5 mph5.6 kmh 30.27 in1025.1 mb - 0.00 in0.0 mm 0.00 in0.0 mm
08:45 PM 15.8°F-9.0°C 12.1°F-11.1°C 85% 1.2 mph E1.9 kmh E 3.5 mph5.6 kmh 30.27 in1025.1 mb - 0.00 in0.0 mm 0.00 in0.0 mm
08:50 PM 15.6°F-9.1°C 12.2°F-11.0°C 86% 1.2 mph E1.9 kmh E 3.5 mph5.6 kmh 30.27 in1025.1 mb - 0.00 in0.0 mm 0.00 in0.0 mm
08:55 PM 15.0°F-9.4°C 11.6°F-11.3°C 86% Calm Calm 2.3 mph3.7 kmh 30.27 in1025.1 mb - 0.00 in0.0 mm 0.00 in0.0 mm
09:00 PM 14.9°F-9.5°C 11.5°F-11.4°C 86% Calm Calm 1.2 mph1.9 kmh 30.26 in1024.7 mb - 0.00 in0.0 mm 0.00 in0.0 mm
09:10 PM 15.0°F-9.4°C 11.6°F-11.3°C 86% 2.3 mph E3.7 kmh E 2.3 mph3.7 kmh 30.27 in1025.1 mb - 0.00 in0.0 mm 0.00 in0.0 mm
09:15 PM 15.2°F-9.3°C 11.8°F-11.2°C 86% 2.3 mph E3.7 kmh E 3.5 mph5.6 kmh 30.27 in1025.1 mb - 0.00 in0.0 mm 0.00 in0.0 mm
09:20 PM 15.6°F-9.1°C 12.1°F-11.1°C 86% 2.3 mph E3.7 kmh E 3.5 mph5.6 kmh 30.27 in1025.1 mb - 0.00 in0.0 mm 0.00 in0.0 mm
09:25 PM 15.3°F-9.3°C 11.9°F-11.2°C 86% 1.2 mph E1.9 kmh E 3.5 mph5.6 kmh 30.27 in1025.1 mb - 0.00 in0.0 mm 0.00 in0.0 mm
09:30 PM 15.0°F-9.4°C 11.6°F-11.3°C 86% Calm Calm 3.5 mph5.6 kmh 30.27 in1025.1 mb - 0.00 in0.0 mm 0.00 in0.0 mm
09:35 PM 14.9°F-9.5°C 11.5°F-11.4°C 86% 2.3 mph E3.7 kmh E 2.3 mph3.7 kmh 30.26 in1024.7 mb - 0.00 in0.0 mm 0.00 in0.0 mm
09:40 PM 15.2°F-9.3°C 11.8°F-11.2°C 86% 3.5 mph E5.6 kmh E 3.5 mph5.6 kmh 30.27 in1025.1 mb - 0.00 in0.0 mm 0.00 in0.0 mm
09:45 PM 15.3°F-9.3°C 11.9°F-11.2°C 86% 2.3 mph E3.7 kmh E 3.5 mph5.6 kmh 30.27 in1025.1 mb - 0.00 in0.0 mm 0.00 in0.0 mm
09:50 PM 15.8°F-9.0°C 12.4°F-10.9°C 86% 2.3 mph E3.7 kmh E 3.5 mph5.6 kmh 30.27 in1025.1 mb - 0.00 in0.0 mm 0.00 in0.0 mm
09:55 PM 15.9°F-8.9°C 12.5°F-10.8°C 86% 2.3 mph E3.7 kmh E 3.5 mph5.6 kmh 30.27 in1025.1 mb - 0.00 in0.0 mm 0.00 in0.0 mm
10:00 PM 16.2°F-8.8°C 12.7°F-10.7°C 86% 3.5 mph E5.6 kmh E 3.5 mph5.6 kmh 30.26 in1024.7 mb - 0.00 in0.0 mm 0.00 in0.0 mm
10:10 PM 16.2°F-8.8°C 12.7°F-10.7°C 86% 2.3 mph E3.7 kmh E 4.6 mph7.4 kmh 30.26 in1024.7 mb - 0.00 in0.0 mm 0.00 in0.0 mm
10:15 PM 16.2°F-8.8°C 12.7°F-10.7°C 86% 3.5 mph E5.6 kmh E 4.6 mph7.4 kmh 30.27 in1025.1 mb - 0.00 in0.0 mm 0.00 in0.0 mm
10:20 PM 15.9°F-8.9°C 12.5°F-10.8°C 86% 3.5 mph E5.6 kmh E 4.6 mph7.4 kmh 30.27 in1025.1 mb - 0.00 in0.0 mm 0.00 in0.0 mm
10:25 PM 15.9°F-8.9°C 12.5°F-10.8°C 86% 2.3 mph E3.7 kmh E 4.6 mph7.4 kmh 30.27 in1025.1 mb - 0.00 in0.0 mm 0.00 in0.0 mm
10:30 PM 15.8°F-9.0°C 12.4°F-10.9°C 86% 2.3 mph E3.7 kmh E 4.6 mph7.4 kmh 30.27 in1025.1 mb - 0.00 in0.0 mm 0.00 in0.0 mm
10:35 PM 15.8°F-9.0°C 12.4°F-10.9°C 86% 3.5 mph E5.6 kmh E 4.6 mph7.4 kmh 30.27 in1025.1 mb - 0.00 in0.0 mm 0.00 in0.0 mm
10:40 PM 15.8°F-9.0°C 12.4°F-10.9°C 86% 2.3 mph E3.7 kmh E 4.6 mph7.4 kmh 30.26 in1024.7 mb - 0.00 in0.0 mm 0.00 in0.0 mm
10:45 PM 15.8°F-9.0°C 12.4°F-10.9°C 86% 2.3 mph E3.7 kmh E 4.6 mph7.4 kmh 30.27 in1025.1 mb - 0.00 in0.0 mm 0.00 in0.0 mm
10:50 PM 15.8°F-9.0°C 12.4°F-10.9°C 86% 2.3 mph E3.7 kmh E 3.5 mph5.6 kmh 30.26 in1024.7 mb - 0.00 in0.0 mm 0.00 in0.0 mm
10:55 PM 15.8°F-9.0°C 12.4°F-10.9°C 86% 2.3 mph E3.7 kmh E 3.5 mph5.6 kmh 30.26 in1024.7 mb - 0.00 in0.0 mm 0.00 in0.0 mm
11:00 PM 15.8°F-9.0°C 12.4°F-10.9°C 86% 3.5 mph E5.6 kmh E 3.5 mph5.6 kmh 30.26 in1024.7 mb - 0.00 in0.0 mm 0.00 in0.0 mm
11:10 PM 16.2°F-8.8°C 12.7°F-10.7°C 86% 4.6 mph E7.4 kmh E 4.6 mph7.4 kmh 30.26 in1024.7 mb - 0.00 in0.0 mm 0.00 in0.0 mm
11:15 PM 16.2°F-8.8°C 12.7°F-10.7°C 86% 2.3 mph E3.7 kmh E 4.6 mph7.4 kmh 30.26 in1024.7 mb - 0.00 in0.0 mm 0.00 in0.0 mm
11:20 PM 16.2°F-8.8°C 12.7°F-10.7°C 86% 3.5 mph E5.6 kmh E 4.6 mph7.4 kmh 30.26 in1024.7 mb - 0.00 in0.0 mm 0.00 in0.0 mm
11:25 PM 15.9°F-8.9°C 12.5°F-10.8°C 86% 2.3 mph E3.7 kmh E 4.6 mph7.4 kmh 30.26 in1024.7 mb - 0.00 in0.0 mm 0.00 in0.0 mm
11:30 PM 15.8°F-9.0°C 12.4°F-10.9°C 86% 2.3 mph E3.7 kmh E 3.5 mph5.6 kmh 30.25 in1024.4 mb - 0.00 in0.0 mm 0.00 in0.0 mm
11:35 PM 15.3°F-9.3°C 11.9°F-11.2°C 86% 2.3 mph E3.7 kmh E 3.5 mph5.6 kmh 30.26 in1024.7 mb - 0.00 in0.0 mm 0.00 in0.0 mm
11:40 PM 15.3°F-9.3°C 11.9°F-11.2°C 86% 3.5 mph E5.6 kmh E 3.5 mph5.6 kmh 30.25 in1024.4 mb - 0.00 in0.0 mm 0.00 in0.0 mm
11:45 PM 15.3°F-9.3°C 11.9°F-11.2°C 86% 3.5 mph E5.6 kmh E 3.5 mph5.6 kmh 30.25 in1024.4 mb - 0.00 in0.0 mm 0.00 in0.0 mm
11:50 PM 15.6°F-9.1°C 12.2°F-11.0°C 86% 2.3 mph E3.7 kmh E 3.5 mph5.6 kmh 30.25 in1024.4 mb - 0.00 in0.0 mm 0.00 in0.0 mm
11:55 PM 15.6°F-9.1°C 12.2°F-11.0°C 86% 2.3 mph E3.7 kmh E 3.5 mph5.6 kmh 30.24 in1024.0 mb - 0.00 in0.0 mm 0.00 in0.0 mm